Time;durP1;ratioP1;P1;durP2;ratioP2;P2;SDS_P1;SDS_P2;PMS_P1;PMS_P2;Temp;Humidity;BMP_temperature;BMP_pressure;BME280_temperature;BME280_humidity;BME280_pressure;Samples;Min_cycle;Max_cycle;Signal;HPM_P1;HPM_P2
2024/01/30 00:01:58;;;;;;;12.05;9.88;;;9.80;99.90;;;;;;5075383;28;20229;-51
2024/01/30 00:04:24;;;;;;;13.93;9.48;;;9.70;99.90;;;;;;5075455;28;20206;-49
2024/01/30 00:06:52;;;;;;;12.15;8.95;;;9.70;99.90;;;;;;5060744;28;20246;-47
2024/01/30 00:09:24;;;;;;;13.55;9.20;;;9.80;99.90;;;;;;5055476;28;20178;-50
2024/01/30 00:11:50;;;;;;;11.00;9.25;;;9.80;99.90;;;;;;5055305;28;20179;-52
2024/01/30 00:14:16;;;;;;;13.23;9.00;;;9.80;99.90;;;;;;5055070;28;20233;-53
2024/01/30 00:16:42;;;;;;;12.77;8.77;;;9.80;99.90;;;;;;5055151;28;20183;-48
2024/01/30 00:19:08;;;;;;;10.38;8.82;;;9.80;99.90;;;;;;5037433;28;20168;-48
2024/01/30 00:21:34;;;;;;;11.75;8.18;;;9.90;99.90;;;;;;5055186;28;20543;-48
2024/01/30 00:23:59;;;;;;;11.80;9.00;;;9.90;99.90;;;;;;5055225;28;20578;-53
2024/01/30 00:26:25;;;;;;;9.80;8.52;;;9.90;99.90;;;;;;5054790;28;20227;-55
2024/01/30 00:28:51;;;;;;;10.60;8.93;;;10.00;99.90;;;;;;5054928;28;20175;-48
2024/01/30 00:31:17;;;;;;;9.85;8.02;;;10.00;99.90;;;;;;5055166;28;20221;-47
2024/01/30 00:33:42;;;;;;;10.00;8.23;;;10.00;99.90;;;;;;5055041;28;20205;-47
2024/01/30 00:36:12;;;;;;;10.25;8.30;;;9.90;99.90;;;;;;5054818;28;20189;-52
2024/01/30 00:38:40;;;;;;;11.05;8.07;;;9.90;99.90;;;;;;5054948;28;20200;-52
2024/01/30 00:41:09;;;;;;;10.98;8.40;;;10.00;99.90;;;;;;5054682;28;20241;-52
2024/01/30 00:43:35;;;;;;;10.30;8.80;;;9.90;99.90;;;;;;5054795;28;20198;-48
2024/01/30 00:46:04;;;;;;;10.82;8.20;;;9.80;99.90;;;;;;5054730;28;20207;-48
2024/01/30 00:48:30;;;;;;;9.07;8.18;;;9.70;99.90;;;;;;5053672;28;20179;-49
2024/01/30 00:50:56;;;;;;;8.80;7.82;;;9.70;99.90;;;;;;5054576;28;20588;-48
2024/01/30 00:53:22;;;;;;;8.40;7.60;;;9.80;99.90;;;;;;5054455;28;20175;-48
2024/01/30 00:55:47;;;;;;;8.65;7.78;;;9.80;99.90;;;;;;5054491;28;20532;-50
2024/01/30 00:58:13;;;;;;;9.60;8.27;;;9.80;99.90;;;;;;5054607;28;20226;-47
2024/01/30 01:00:39;;;;;;;11.18;8.15;;;9.70;99.90;;;;;;5054276;28;20525;-48
2024/01/30 01:03:05;;;;;;;10.23;7.95;;;9.70;99.90;;;;;;5054535;28;20176;-52
2024/01/30 01:05:31;;;;;;;9.70;7.97;;;9.80;99.90;;;;;;5054257;28;20545;-51
2024/01/30 01:07:57;;;;;;;9.25;7.90;;;9.70;99.90;;;;;;5054210;28;20183;-48
2024/01/30 01:10:23;;;;;;;9.80;7.97;;;9.70;99.90;;;;;;5054025;28;20183;-48
2024/01/30 01:12:49;;;;;;;11.18;8.48;;;9.70;99.90;;;;;;5054264;28;20182;-49
2024/01/30 01:15:15;;;;;;;9.27;7.63;;;9.80;99.90;;;;;;5054238;28;20241;-49
2024/01/30 01:17:41;;;;;;;8.70;7.80;;;9.80;99.90;;;;;;5036404;28;20171;-49
2024/01/30 01:20:07;;;;;;;10.38;7.97;;;9.80;99.90;;;;;;5054104;28;20175;-49
2024/01/30 01:22:33;;;;;;;9.57;7.47;;;9.70;99.90;;;;;;5053856;28;20505;-50
2024/01/30 01:25:00;;;;;;;9.00;7.50;;;9.60;99.90;;;;;;5053972;28;20235;-48
2024/01/30 01:27:26;;;;;;;8.82;7.50;;;9.60;99.90;;;;;;5054134;28;20171;-55
2024/01/30 01:29:52;;;;;;;8.85;8.05;;;9.60;99.90;;;;;;5054104;28;20179;-48
2024/01/30 01:32:18;;;;;;;10.35;7.95;;;9.60;99.90;;;;;;5053902;28;20567;-49
2024/01/30 01:34:44;;;;;;;9.38;7.40;;;9.60;99.90;;;;;;5053846;28;20167;-50
2024/01/30 01:37:10;;;;;;;8.27;7.47;;;9.50;99.90;;;;;;5053663;28;20681;-50
2024/01/30 01:39:36;;;;;;;9.80;7.60;;;9.60;99.90;;;;;;5053663;28;20194;-52
2024/01/30 01:42:01;;;;;;;9.77;7.88;;;9.50;99.90;;;;;;5053830;28;20171;-52
2024/01/30 01:44:28;;;;;;;9.25;7.75;;;9.50;99.90;;;;;;5053533;28;20167;-48
2024/01/30 01:46:55;;;;;;;8.77;7.47;;;9.50;99.90;;;;;;5053536;28;20249;-49
2024/01/30 01:49:27;;;;;;;8.90;7.85;;;9.40;99.90;;;;;;5053572;28;20176;-50
2024/01/30 01:51:56;;;;;;;8.18;7.43;;;9.40;99.90;;;;;;5053593;28;20258;-50
2024/01/30 01:54:23;;;;;;;7.75;6.95;;;9.50;99.90;;;;;;5053392;28;20182;-51
2024/01/30 01:56:49;;;;;;;9.73;6.90;;;9.50;99.90;;;;;;5053591;28;20171;-49
2024/01/30 01:59:16;;;;;;;9.02;7.22;;;9.50;99.90;;;;;;5053718;28;20636;-51
2024/01/30 02:01:43;;;;;;;7.53;6.75;;;9.40;99.90;;;;;;5053274;28;20183;-51
2024/01/30 02:04:08;;;;;;;8.95;6.78;;;9.30;99.90;;;;;;5053124;28;20533;-53
2024/01/30 02:06:38;;;;;;;7.80;6.95;;;9.30;99.90;;;;;;5053183;28;20229;-49
2024/01/30 02:09:04;;;;;;;9.23;7.75;;;9.30;99.90;;;;;;5053146;28;20205;-48
2024/01/30 02:11:31;;;;;;;10.18;7.45;;;9.30;99.90;;;;;;5053262;28;20186;-51
2024/01/30 02:13:56;;;;;;;7.75;7.00;;;9.30;99.90;;;;;;5052817;28;20589;-51
2024/01/30 02:16:22;;;;;;;8.15;7.30;;;9.30;99.90;;;;;;5053490;28;20179;-49
2024/01/30 02:18:48;;;;;;;9.27;7.53;;;9.40;99.90;;;;;;5053145;28;20178;-48
2024/01/30 02:21:17;;;;;;;7.63;6.90;;;9.30;99.90;;;;;;5053098;28;20195;-52
2024/01/30 02:23:44;;;;;;;9.27;7.28;;;9.30;99.90;;;;;;5053481;28;20270;-52
2024/01/30 02:26:11;;;;;;;8.82;7.40;;;9.40;99.90;;;;;;5052972;28;20626;-48
2024/01/30 02:28:37;;;;;;;8.43;7.63;;;9.40;99.90;;;;;;5053110;28;20254;-48
2024/01/30 02:31:03;;;;;;;8.23;7.43;;;9.50;99.90;;;;;;5053212;28;20265;-50
2024/01/30 02:33:29;;;;;;;9.63;7.28;;;9.50;99.90;;;;;;5052959;28;20214;-50
2024/01/30 02:35:54;;;;;;;9.40;7.30;;;9.60;99.90;;;;;;5052863;28;20584;-48
2024/01/30 02:38:20;;;;;;;8.57;7.63;;;9.60;99.90;;;;;;5052233;28;20654;-51
2024/01/30 02:40:52;;;;;;;8.00;7.20;;;9.60;99.90;;;;;;5052839;28;20222;-51
2024/01/30 02:43:18;;;;;;;8.02;7.05;;;9.60;99.90;;;;;;5053101;28;20172;-51
2024/01/30 02:45:43;;;;;;;8.48;7.00;;;9.60;99.90;;;;;;5052716;28;20201;-49
2024/01/30 02:48:09;;;;;;;9.23;7.22;;;9.70;99.90;;;;;;5052831;28;20254;-47
2024/01/30 02:50:34;;;;;;;7.55;6.78;;;9.70;99.90;;;;;;5052746;28;20175;-51
2024/01/30 02:53:00;;;;;;;8.55;6.80;;;9.70;99.90;;;;;;5052875;28;20228;-47
2024/01/30 02:55:26;;;;;;;7.50;6.80;;;9.70;99.90;;;;;;5052883;28;20274;-47
2024/01/30 02:57:52;;;;;;;9.38;7.07;;;9.70;99.90;;;;;;5053036;28;20237;-49
2024/01/30 03:00:19;;;;;;;7.80;7.00;;;9.80;99.90;;;;;;5035044;28;20171;-50
2024/01/30 03:02:45;;;;;;;7.03;6.40;;;9.80;99.90;;;;;;5052600;28;20185;-47
2024/01/30 03:05:11;;;;;;;7.68;6.60;;;9.80;99.90;;;;;;5052523;28;20203;-50
2024/01/30 03:07:36;;;;;;;8.90;7.60;;;9.90;99.90;;;;;;5052754;28;20205;-51
2024/01/30 03:10:02;;;;;;;9.00;6.35;;;10.00;99.90;;;;;;5052979;28;20705;-52
2024/01/30 03:12:31;;;;;;;7.88;7.07;;;10.00;99.90;;;;;;5054210;28;20194;-49
2024/01/30 03:14:56;;;;;;;10.63;7.07;;;10.10;99.90;;;;;;5056460;28;20186;-50
2024/01/30 03:17:22;;;;;;;7.55;6.75;;;10.00;99.90;;;;;;5038583;28;20532;-49
2024/01/30 03:19:47;;;;;;;7.60;6.80;;;10.00;99.90;;;;;;5056230;28;20544;-50
2024/01/30 03:22:13;;;;;;;8.05;6.65;;;10.00;99.90;;;;;;5056181;28;20527;-55
2024/01/30 03:24:39;;;;;;;7.65;6.88;;;10.10;99.90;;;;;;5056169;28;20613;-48
2024/01/30 03:27:04;;;;;;;7.45;6.68;;;10.10;99.90;;;;;;5056297;28;20768;-51
2024/01/30 03:29:30;;;;;;;9.13;6.53;;;10.00;99.90;;;;;;5056170;28;20574;-51
2024/01/30 03:31:56;;;;;;;7.03;6.28;;;10.00;99.90;;;;;;5056230;28;20176;-51
2024/01/30 03:34:21;;;;;;;7.28;6.57;;;10.00;99.90;;;;;;5055868;28;20258;-48
2024/01/30 03:36:47;;;;;;;8.25;7.10;;;10.00;99.90;;;;;;5056154;28;20219;-52
2024/01/30 03:39:12;;;;;;;7.35;6.65;;;10.00;99.90;;;;;;5056155;28;20524;-47
2024/01/30 03:41:41;;;;;;;8.15;6.78;;;10.10;99.90;;;;;;5055999;28;20631;-52
2024/01/30 03:44:07;;;;;;;7.78;6.97;;;10.10;99.90;;;;;;5055904;28;20650;-50
2024/01/30 03:46:32;;;;;;;8.57;7.20;;;10.10;99.90;;;;;;5055689;28;20238;-51
2024/01/30 03:48:58;;;;;;;9.27;6.68;;;10.10;99.90;;;;;;5055678;28;20199;-52
2024/01/30 03:51:24;;;;;;;7.32;6.63;;;10.10;99.90;;;;;;5055796;28;20210;-50
2024/01/30 03:53:49;;;;;;;7.82;6.85;;;10.00;99.90;;;;;;5055834;28;20234;-54
2024/01/30 03:56:15;;;;;;;8.93;6.93;;;10.00;99.90;;;;;;5055834;28;20635;-52
2024/01/30 03:58:41;;;;;;;7.68;6.57;;;10.00;99.90;;;;;;5055683;28;20220;-52
2024/01/30 04:01:07;;;;;;;7.22;6.50;;;10.00;99.90;;;;;;5055519;28;20178;-51
2024/01/30 04:03:33;;;;;;;7.45;6.63;;;10.00;99.90;;;;;;5055372;28;20236;-50
2024/01/30 04:05:58;;;;;;;8.77;6.60;;;10.00;99.90;;;;;;5055621;28;20298;-50
2024/01/30 04:08:24;;;;;;;7.97;6.07;;;10.10;99.90;;;;;;5037552;28;20205;-49
2024/01/30 04:10:49;;;;;;;7.20;6.50;;;10.10;99.90;;;;;;5055446;28;20536;-52
2024/01/30 04:13:15;;;;;;;9.20;6.35;;;10.00;99.90;;;;;;5055315;28;20624;-53
2024/01/30 04:15:41;;;;;;;10.45;6.57;;;10.00;99.90;;;;;;5055349;28;20644;-48
2024/01/30 04:18:06;;;;;;;7.88;6.03;;;10.10;99.90;;;;;;5055167;28;20168;-49
2024/01/30 04:20:32;;;;;;;6.75;5.82;;;10.00;99.90;;;;;;5055352;28;20182;-49
2024/01/30 04:22:58;;;;;;;7.00;6.30;;;10.00;99.90;;;;;;5037353;28;20652;-50
2024/01/30 04:25:23;;;;;;;6.72;6.05;;;9.90;99.90;;;;;;5055465;28;20673;-52
2024/01/30 04:27:49;;;;;;;6.95;6.25;;;9.90;99.90;;;;;;5055159;28;20222;-54
2024/01/30 04:30:15;;;;;;;6.65;6.05;;;9.90;99.90;;;;;;5037103;28;20221;-53
2024/01/30 04:32:41;;;;;;;7.70;6.90;;;10.00;99.90;;;;;;5054966;28;20171;-51
2024/01/30 04:35:07;;;;;;;7.53;6.63;;;9.90;99.90;;;;;;5055073;28;20267;-51
2024/01/30 04:37:32;;;;;;;6.85;5.90;;;9.90;99.90;;;;;;5054798;28;20180;-50
2024/01/30 04:39:58;;;;;;;7.28;6.57;;;9.90;99.90;;;;;;5055007;28;20186;-48
2024/01/30 04:42:24;;;;;;;7.65;6.95;;;9.90;99.90;;;;;;5055114;28;20218;-47
2024/01/30 04:44:50;;;;;;;8.73;6.60;;;10.00;99.90;;;;;;5054807;28;20182;-53
2024/01/30 04:47:16;;;;;;;8.55;6.82;;;9.90;99.90;;;;;;5054526;28;20636;-51
2024/01/30 04:49:41;;;;;;;7.00;6.30;;;9.90;99.90;;;;;;5054871;28;20175;-52
2024/01/30 04:52:08;;;;;;;7.57;6.53;;;10.00;99.90;;;;;;5054742;28;20197;-50
2024/01/30 04:54:34;;;;;;;8.50;7.18;;;10.00;99.90;;;;;;5054709;28;20659;-50
2024/01/30 04:57:01;;;;;;;7.80;7.03;;;10.10;99.90;;;;;;5054594;28;20701;-51
2024/01/30 04:59:26;;;;;;;7.13;6.43;;;10.10;99.90;;;;;;5054470;28;20178;-52
2024/01/30 05:01:52;;;;;;;7.18;6.47;;;10.10;99.90;;;;;;5054288;28;20167;-49
2024/01/30 05:04:18;;;;;;;7.20;6.50;;;10.10;99.90;;;;;;5054501;28;20179;-49
2024/01/30 05:06:43;;;;;;;8.07;6.72;;;10.10;99.90;;;;;;5054432;28;20213;-50
2024/01/30 05:09:09;;;;;;;7.20;6.50;;;10.10;99.90;;;;;;5054346;28;20221;-53
2024/01/30 05:11:39;;;;;;;8.23;6.90;;;10.00;99.90;;;;;;5054210;28;20175;-51
2024/01/30 05:14:05;;;;;;;8.27;6.65;;;10.10;99.90;;;;;;5054199;28;20539;-52
2024/01/30 05:16:31;;;;;;;8.07;6.47;;;10.20;99.90;;;;;;5053932;28;20179;-52
2024/01/30 05:18:58;;;;;;;7.28;6.55;;;10.10;99.90;;;;;;5054247;28;20214;-49
2024/01/30 05:21:24;;;;;;;7.18;6.43;;;10.10;99.90;;;;;;5054154;28;20175;-48
2024/01/30 05:23:49;;;;;;;7.50;6.57;;;10.10;99.90;;;;;;5054065;28;20229;-51
2024/01/30 05:26:15;;;;;;;8.10;6.47;;;10.20;99.90;;;;;;5053656;28;20264;-52
2024/01/30 05:28:41;;;;;;;6.75;6.15;;;10.20;99.90;;;;;;5053914;28;20172;-50
2024/01/30 05:31:06;;;;;;;6.80;6.13;;;10.10;99.90;;;;;;5053715;28;20639;-49
2024/01/30 05:33:35;;;;;;;7.28;6.53;;;10.20;99.90;;;;;;5054129;28;20180;-49
2024/01/30 05:36:00;;;;;;;7.95;6.70;;;10.20;99.90;;;;;;5053392;28;20171;-51
2024/01/30 05:38:26;;;;;;;7.72;7.00;;;10.20;99.90;;;;;;5045802;28;20195;-49
2024/01/30 05:40:52;;;;;;;7.63;6.40;;;10.10;99.90;;;;;;5038816;28;20188;-51
2024/01/30 05:43:17;;;;;;;7.70;6.25;;;10.10;99.90;;;;;;5042953;28;20179;-50
2024/01/30 05:45:43;;;;;;;7.05;6.35;;;10.20;99.90;;;;;;5053418;28;20664;-50
2024/01/30 05:48:12;;;;;;;7.45;6.53;;;10.10;99.90;;;;;;5052621;28;20633;-51
2024/01/30 05:50:37;;;;;;;9.57;6.78;;;10.20;99.90;;;;;;5053602;28;20250;-55
2024/01/30 05:53:03;;;;;;;7.53;6.53;;;10.10;99.90;;;;;;5053567;28;20588;-49
2024/01/30 05:55:32;;;;;;;6.25;5.60;;;10.20;99.90;;;;;;5053445;28;20214;-48
2024/01/30 05:57:58;;;;;;;7.00;6.30;;;10.20;99.90;;;;;;5053414;28;20543;-51
2024/01/30 06:00:24;;;;;;;7.57;6.72;;;10.30;99.90;;;;;;5053295;28;20186;-49
2024/01/30 06:02:49;;;;;;;7.55;6.20;;;10.40;99.90;;;;;;5053557;28;20177;-54
2024/01/30 06:05:15;;;;;;;7.20;6.25;;;10.40;99.90;;;;;;5035400;28;20207;-53
2024/01/30 06:07:40;;;;;;;6.50;5.90;;;10.20;99.90;;;;;;5053119;28;20182;-51
2024/01/30 06:10:08;;;;;;;8.60;6.60;;;10.20;99.90;;;;;;5053334;28;20543;-52
2024/01/30 06:12:37;;;;;;;8.82;6.72;;;10.30;99.90;;;;;;5053089;28;20232;-52
2024/01/30 06:15:03;;;;;;;8.95;7.00;;;10.30;99.90;;;;;;5053056;28;20186;-53
2024/01/30 06:17:29;;;;;;;8.30;6.35;;;10.40;99.90;;;;;;5053257;28;20186;-52
2024/01/30 06:19:54;;;;;;;8.93;6.78;;;10.40;99.90;;;;;;5053146;28;20172;-52
2024/01/30 06:22:24;;;;;;;7.55;6.70;;;10.40;99.90;;;;;;5053162;28;20315;-53
2024/01/30 06:24:49;;;;;;;7.55;6.70;;;10.30;99.90;;;;;;5052825;28;20179;-55
2024/01/30 06:27:15;;;;;;;7.57;6.32;;;10.20;99.90;;;;;;5053120;28;20194;-48
2024/01/30 06:29:42;;;;;;;7.35;6.60;;;10.30;99.90;;;;;;5052914;28;20690;-49
2024/01/30 06:32:08;;;;;;;7.35;6.22;;;10.30;99.90;;;;;;5053167;28;20163;-51
2024/01/30 06:34:38;;;;;;;7.63;6.50;;;10.30;99.90;;;;;;5035334;28;20179;-51
2024/01/30 06:37:04;;;;;;;7.20;6.60;;;10.30;99.90;;;;;;5052896;28;20191;-47
2024/01/30 06:39:29;;;;;;;8.27;7.05;;;10.30;99.90;;;;;;5053134;28;20689;-52
2024/01/30 06:41:55;;;;;;;8.52;7.32;;;10.40;99.90;;;;;;5052844;28;20269;-50
2024/01/30 06:44:21;;;;;;;6.80;6.18;;;10.40;99.90;;;;;;5052758;28;20175;-48
2024/01/30 06:46:46;;;;;;;8.40;6.80;;;10.40;99.90;;;;;;5052810;28;20217;-49
2024/01/30 06:49:12;;;;;;;8.23;6.80;;;10.40;99.90;;;;;;5056238;28;20178;-50
2024/01/30 06:51:38;;;;;;;8.48;6.70;;;10.40;99.90;;;;;;5055998;28;20335;-49
2024/01/30 06:54:04;;;;;;;8.05;6.72;;;10.40;99.90;;;;;;5056119;28;20186;-52
2024/01/30 06:56:29;;;;;;;7.13;6.40;;;10.30;99.90;;;;;;5055910;28;20183;-48
2024/01/30 06:58:55;;;;;;;7.47;6.68;;;10.30;99.90;;;;;;5055794;28;20663;-53
2024/01/30 07:01:27;;;;;;;7.57;6.82;;;10.40;99.90;;;;;;5055951;28;20205;-48
2024/01/30 07:03:52;;;;;;;7.70;6.35;;;10.40;99.90;;;;;;5056074;28;20622;-48
2024/01/30 07:06:18;;;;;;;7.47;6.57;;;10.40;99.90;;;;;;5055915;28;20211;-52
2024/01/30 07:08:44;;;;;;;8.07;6.55;;;10.50;99.90;;;;;;5055767;28;20210;-51
2024/01/30 07:11:09;;;;;;;7.78;6.97;;;10.40;99.90;;;;;;5055778;28;20171;-52
2024/01/30 07:13:35;;;;;;;7.13;6.22;;;10.50;99.90;;;;;;5056052;28;20539;-48
2024/01/30 07:16:01;;;;;;;8.43;6.60;;;10.50;99.90;;;;;;5055805;28;20190;-51
2024/01/30 07:18:26;;;;;;;7.22;6.13;;;10.50;99.90;;;;;;5055706;28;20179;-53
2024/01/30 07:20:52;;;;;;;7.72;6.63;;;10.60;99.90;;;;;;5055491;28;20182;-52
2024/01/30 07:23:21;;;;;;;6.88;6.18;;;10.50;99.90;;;;;;5055369;28;20180;-51
2024/01/30 07:25:49;;;;;;;6.95;6.22;;;10.50;99.90;;;;;;5055031;28;20219;-50
2024/01/30 07:28:18;;;;;;;7.40;6.22;;;10.50;99.90;;;;;;5037311;28;20586;-50
2024/01/30 07:30:44;;;;;;;7.15;6.45;;;10.50;99.90;;;;;;5055425;28;20267;-53
2024/01/30 07:33:10;;;;;;;8.48;6.93;;;10.50;99.90;;;;;;5055190;28;20174;-53
2024/01/30 07:35:36;;;;;;;6.88;6.18;;;10.50;99.90;;;;;;5055358;28;20175;-52
2024/01/30 07:38:02;;;;;;;8.40;7.20;;;10.50;99.90;;;;;;5055237;28;20651;-51
2024/01/30 07:40:33;;;;;;;7.45;6.75;;;10.50;99.90;;;;;;5055007;28;20203;-51
2024/01/30 07:42:58;;;;;;;7.85;6.63;;;10.60;99.90;;;;;;5055269;28;20188;-52
2024/01/30 07:45:25;;;;;;;7.38;6.68;;;10.50;99.90;;;;;;5055006;28;20233;-51
2024/01/30 07:47:51;;;;;;;7.60;6.50;;;10.60;99.90;;;;;;5055061;28;20190;-52
2024/01/30 07:50:17;;;;;;;8.52;6.40;;;10.60;99.90;;;;;;5055057;28;20190;-50
2024/01/30 07:52:43;;;;;;;8.18;7.32;;;10.60;99.90;;;;;;5054904;28;20182;-49
2024/01/30 07:55:09;;;;;;;9.15;6.90;;;10.60;99.90;;;;;;5054776;28;20175;-51
2024/01/30 07:57:35;;;;;;;7.35;6.65;;;10.60;99.90;;;;;;5054584;28;20275;-50
2024/01/30 08:00:02;;;;;;;7.20;6.50;;;10.70;99.90;;;;;;5054941;28;20179;-49
2024/01/30 08:02:28;;;;;;;7.47;6.68;;;10.70;99.90;;;;;;5054736;28;20262;-52
2024/01/30 08:04:54;;;;;;;8.10;6.25;;;10.70;99.90;;;;;;5036920;28;20294;-50
2024/01/30 08:07:21;;;;;;;8.20;6.88;;;10.70;99.90;;;;;;5036886;28;20175;-48
2024/01/30 08:09:47;;;;;;;7.88;6.85;;;10.80;99.90;;;;;;5054423;28;20239;-50
2024/01/30 08:12:13;;;;;;;9.07;6.65;;;10.90;99.90;;;;;;5054826;28;20175;-49
2024/01/30 08:14:41;;;;;;;8.50;6.63;;;10.90;99.90;;;;;;5054557;28;20584;-49
2024/01/30 08:17:07;;;;;;;8.75;6.63;;;10.80;99.90;;;;;;5053458;28;20188;-53
2024/01/30 08:19:33;;;;;;;9.93;6.80;;;10.90;99.90;;;;;;5054498;28;20340;-50
2024/01/30 08:21:59;;;;;;;8.25;6.70;;;10.90;99.90;;;;;;5054355;28;20180;-50
2024/01/30 08:24:24;;;;;;;7.63;6.53;;;10.90;99.90;;;;;;5054213;28;20235;-52
2024/01/30 08:26:50;;;;;;;10.45;7.38;;;11.00;99.90;;;;;;5054502;28;20284;-48
2024/01/30 08:29:16;;;;;;;8.20;7.05;;;11.00;99.90;;;;;;5054445;28;20168;-50
2024/01/30 08:31:42;;;;;;;7.70;7.00;;;11.00;99.90;;;;;;5037717;28;20203;-52
2024/01/30 08:34:07;;;;;;;7.70;6.90;;;11.00;99.90;;;;;;5074256;28;20304;-48
2024/01/30 08:36:33;;;;;;;10.73;7.25;;;11.00;99.90;;;;;;5074149;28;20608;-52
2024/01/30 08:38:59;;;;;;;9.35;7.13;;;11.00;99.90;;;;;;5074025;28;20178;-52
2024/01/30 08:41:25;;;;;;;8.82;7.10;;;10.90;99.90;;;;;;5073918;28;20256;-51
2024/01/30 08:43:51;;;;;;;7.10;6.40;;;10.90;99.90;;;;;;5074097;28;20626;-51
2024/01/30 08:46:19;;;;;;;8.63;7.15;;;10.90;99.90;;;;;;5073918;28;20248;-50
2024/01/30 08:48:47;;;;;;;7.70;6.50;;;11.00;99.90;;;;;;5073708;28;20544;-52
2024/01/30 08:51:13;;;;;;;8.50;6.95;;;10.90;99.90;;;;;;5073767;28;20174;-53
2024/01/30 08:53:39;;;;;;;12.48;8.52;;;11.00;99.90;;;;;;5073568;28;20226;-49
2024/01/30 08:56:06;;;;;;;10.65;8.63;;;11.10;99.90;;;;;;5073852;28;20591;-53
2024/01/30 08:58:32;;;;;;;9.20;8.10;;;11.00;99.90;;;;;;5055828;28;20178;-51
2024/01/30 09:00:59;;;;;;;11.30;8.32;;;11.10;99.90;;;;;;5072789;28;20186;-52
2024/01/30 09:03:24;;;;;;;10.60;8.40;;;11.10;99.90;;;;;;5073516;28;20175;-53
2024/01/30 09:06:00;;;;;;;12.85;8.80;;;11.00;99.90;;;;;;5073448;28;20209;-51
2024/01/30 09:08:25;;;;;;;11.63;8.20;;;11.10;99.90;;;;;;5073647;28;20607;-53
2024/01/30 09:10:51;;;;;;;11.10;8.20;;;11.20;99.90;;;;;;5072752;28;20171;-50
2024/01/30 09:13:17;;;;;;;10.30;8.02;;;11.20;99.90;;;;;;5073455;28;20182;-50
2024/01/30 09:15:42;;;;;;;10.20;8.35;;;11.20;99.90;;;;;;5073360;28;20179;-48
2024/01/30 09:18:09;;;;;;;10.35;8.25;;;11.40;99.90;;;;;;5073293;28;20179;-49
2024/01/30 09:20:35;;;;;;;9.52;7.90;;;11.40;99.90;;;;;;5073089;28;20647;-48
2024/01/30 09:23:00;;;;;;;9.38;8.13;;;11.30;99.90;;;;;;5073088;28;20198;-50
2024/01/30 09:25:29;;;;;;;10.15;8.40;;;11.30;99.90;;;;;;5072801;28;20222;-51
2024/01/30 09:27:55;;;;;;;9.82;8.27;;;11.40;99.90;;;;;;5073252;28;20257;-49
2024/01/30 09:30:21;;;;;;;10.70;9.15;;;11.40;99.90;;;;;;5073099;28;20178;-53
2024/01/30 09:32:46;;;;;;;9.18;8.27;;;11.50;99.90;;;;;;5073103;28;20204;-51
2024/01/30 09:35:12;;;;;;;12.90;8.93;;;11.50;99.90;;;;;;5072923;28;20258;-49
2024/01/30 09:37:38;;;;;;;13.48;8.82;;;11.50;99.90;;;;;;5072893;28;20182;-49
2024/01/30 09:40:05;;;;;;;14.02;9.48;;;11.50;99.90;;;;;;5072716;28;20167;-48
2024/01/30 09:42:37;;;;;;;13.48;8.52;;;11.50;99.90;;;;;;5072889;28;20678;-52
2024/01/30 09:45:05;;;;;;;10.13;8.55;;;11.70;99.90;;;;;;5072833;28;20174;-49
2024/01/30 09:47:41;;;;;;;11.70;8.80;;;11.70;99.90;;;;;;5072723;28;20182;-50
2024/01/30 09:50:08;;;;;;;9.85;8.90;;;11.70;99.90;;;;;;5072653;28;20185;-53
2024/01/30 09:52:33;;;;;;;12.32;9.45;;;11.80;99.90;;;;;;5072705;28;20175;-50
2024/01/30 09:55:00;;;;;;;11.20;9.15;;;11.80;99.90;;;;;;5072746;28;20220;-53
2024/01/30 09:57:26;;;;;;;16.33;9.70;;;11.90;99.90;;;;;;5072543;28;20186;-53
2024/01/30 09:59:53;;;;;;;11.55;8.90;;;11.80;99.90;;;;;;5072605;28;20182;-49
2024/01/30 10:02:20;;;;;;;12.73;8.38;;;11.70;99.90;;;;;;5072367;28;20536;-48
2024/01/30 10:04:49;;;;;;;10.73;9.10;;;11.60;99.90;;;;;;5072691;28;20170;-49
2024/01/30 10:07:15;;;;;;;9.80;8.43;;;11.50;99.90;;;;;;5072370;28;20211;-48
2024/01/30 10:09:41;;;;;;;10.27;7.57;;;11.60;99.90;;;;;;5072546;28;20175;-49
2024/01/30 10:12:08;;;;;;;9.43;7.75;;;11.50;99.90;;;;;;5072419;28;20202;-53
2024/01/30 10:14:37;;;;;;;9.65;6.82;;;11.50;99.90;;;;;;5072476;28;20170;-50
2024/01/30 10:17:04;;;;;;;8.85;6.32;;;11.50;99.90;;;;;;5072216;28;20178;-53
2024/01/30 10:19:29;;;;;;;10.27;5.50;;;11.50;99.90;;;;;;5072457;28;20261;-51
2024/01/30 10:21:55;;;;;;;8.40;3.97;;;11.50;99.90;;;;;;5072262;28;20178;-50
2024/01/30 10:24:24;;;;;;;4.90;2.63;;;11.70;99.90;;;;;;5072405;28;20297;-50
2024/01/30 10:26:50;;;;;;;3.10;1.90;;;11.50;99.90;;;;;;5072092;28;20254;-53
2024/01/30 10:29:17;;;;;;;4.50;1.58;;;11.50;99.90;;;;;;5072228;28;20279;-50
2024/01/30 10:31:43;;;;;;;3.25;1.75;;;11.30;99.90;;;;;;5072385;28;20653;-48
2024/01/30 10:34:08;;;;;;;2.88;1.40;;;11.40;99.90;;;;;;5072480;28;20167;-49
2024/01/30 10:36:43;;;;;;;2.95;1.40;;;11.40;99.90;;;;;;5072392;28;20187;-49
2024/01/30 10:39:10;;;;;;;2.53;1.33;;;11.20;99.90;;;;;;5072018;28;20771;-49
2024/01/30 10:41:44;;;;;;;2.75;1.30;;;11.30;99.90;;;;;;5071872;28;20183;-47
2024/01/30 10:44:10;;;;;;;2.55;1.30;;;11.20;99.90;;;;;;5071338;28;20195;-51
2024/01/30 10:46:38;;;;;;;3.38;1.40;;;11.20;99.90;;;;;;5072099;28;20210;-48
2024/01/30 10:49:06;;;;;;;2.35;1.60;;;11.20;99.90;;;;;;5072217;28;20186;-48
2024/01/30 10:51:32;;;;;;;3.35;1.55;;;11.30;99.90;;;;;;5071940;28;20539;-50
2024/01/30 10:53:58;;;;;;;3.78;1.58;;;11.30;99.90;;;;;;5072004;28;20241;-48
2024/01/30 10:56:25;;;;;;;2.72;1.20;;;11.30;99.90;;;;;;5072024;28;20608;-50
2024/01/30 10:58:55;;;;;;;4.13;1.42;;;11.30;99.90;;;;;;5071934;28;20228;-50
2024/01/30 11:01:25;;;;;;;2.25;1.10;;;11.50;99.90;;;;;;5072136;28;20257;-50
2024/01/30 11:03:54;;;;;;;5.38;1.35;;;11.50;99.90;;;;;;5054009;28;20271;-51
2024/01/30 11:06:24;;;;;;;2.97;1.30;;;11.60;99.90;;;;;;5071908;28;20666;-51
2024/01/30 11:09:07;;;;;;;3.00;1.17;;;11.60;99.90;;;;;;5071869;28;20207;-49
2024/01/30 11:11:47;;;;;;;2.40;1.27;;;11.60;99.90;;;;;;5072126;28;20240;-51
2024/01/30 11:14:13;;;;;;;3.33;1.35;;;11.80;99.90;;;;;;5071894;28;20185;-49
2024/01/30 11:16:40;;;;;;;2.60;1.42;;;12.00;99.90;;;;;;5071849;28;20174;-51
2024/01/30 11:19:11;;;;;;;6.30;1.30;;;12.10;99.90;;;;;;5071795;28;20179;-52
2024/01/30 11:21:43;;;;;;;2.17;1.05;;;12.00;99.90;;;;;;5071730;28;20178;-54
2024/01/30 11:24:09;;;;;;;2.22;0.93;;;12.00;99.90;;;;;;5071864;28;20167;-51
2024/01/30 11:26:35;;;;;;;4.60;1.10;;;12.00;99.90;;;;;;5071767;28;20226;-49
2024/01/30 11:29:07;;;;;;;2.83;1.15;;;12.00;99.90;;;;;;5071839;28;20220;-46
2024/01/30 11:31:36;;;;;;;4.50;1.40;;;11.90;99.90;;;;;;5071823;28;20171;-50
2024/01/30 11:34:06;;;;;;;1.67;0.93;;;11.80;99.90;;;;;;5073933;28;20171;-53
2024/01/30 11:36:34;;;;;;;2.25;1.00;;;11.90;99.90;;;;;;5075438;28;20493;-48
2024/01/30 11:39:00;;;;;;;4.13;1.42;;;11.90;99.90;;;;;;5075326;28;20179;-51
2024/01/30 11:41:27;;;;;;;2.80;1.20;;;12.00;99.90;;;;;;5075171;28;20268;-50
2024/01/30 11:43:53;;;;;;;3.58;1.00;;;12.00;99.90;;;;;;5056668;28;20302;-49
2024/01/30 11:46:19;;;;;;;7.28;1.85;;;12.00;99.90;;;;;;5075034;28;20289;-52
2024/01/30 11:48:45;;;;;;;4.78;1.65;;;12.10;99.90;;;;;;5074967;28;20266;-50
2024/01/30 11:51:13;;;;;;;2.13;1.15;;;12.10;99.90;;;;;;5075442;28;20647;-51
2024/01/30 11:53:39;;;;;;;5.85;1.50;;;12.00;99.90;;;;;;5075021;28;20671;-51
2024/01/30 11:56:06;;;;;;;2.63;1.10;;;12.00;99.90;;;;;;5057084;28;20206;-51
2024/01/30 11:58:32;;;;;;;6.20;1.60;;;11.80;99.90;;;;;;5074930;28;20167;-47
2024/01/30 12:00:59;;;;;;;3.38;1.30;;;11.80;99.90;;;;;;5074789;28;20190;-51
2024/01/30 12:03:25;;;;;;;3.53;1.08;;;11.80;99.90;;;;;;5074228;28;20748;-57
2024/01/30 12:05:58;;;;;;;2.72;1.10;;;11.90;99.90;;;;;;5074241;28;20226;-50
2024/01/30 12:08:24;;;;;;;1.85;0.98;;;11.90;99.90;;;;;;5073633;28;20175;-48
2024/01/30 12:11:01;;;;;;;2.17;1.20;;;11.80;99.90;;;;;;5074522;28;20179;-53
2024/01/30 12:13:27;;;;;;;3.92;1.27;;;11.80;99.90;;;;;;5059751;28;20238;-48
2024/01/30 12:15:52;;;;;;;4.53;1.27;;;11.80;99.90;;;;;;5051287;28;20183;-54
2024/01/30 12:18:21;;;;;;;7.03;1.60;;;11.80;99.90;;;;;;5030572;28;20209;-51
2024/01/30 12:21:00;;;;;;;3.45;1.05;;;11.80;99.90;;;;;;5063077;28;20193;-52
2024/01/30 12:23:29;;;;;;;5.18;1.73;;;11.70;99.90;;;;;;5065990;28;20202;-52
2024/01/30 12:25:55;;;;;;;3.25;1.33;;;11.70;99.90;;;;;;5055927;28;20588;-52
2024/01/30 12:28:21;;;;;;;4.82;1.42;;;11.70;99.90;;;;;;5054015;28;20202;-53
2024/01/30 12:30:47;;;;;;;2.47;1.10;;;11.60;99.90;;;;;;5053811;28;20182;-52
2024/01/30 12:33:18;;;;;;;3.92;1.50;;;11.60;99.90;;;;;;5053910;28;20182;-51
2024/01/30 12:35:48;;;;;;;5.88;1.27;;;11.50;99.90;;;;;;5053734;28;20178;-49
2024/01/30 12:38:14;;;;;;;3.60;1.42;;;11.30;99.90;;;;;;5053915;28;20183;-51
2024/01/30 12:40:40;;;;;;;2.65;1.33;;;11.40;99.90;;;;;;5053802;28;20175;-51
2024/01/30 12:43:09;;;;;;;4.38;1.67;;;11.40;99.90;;;;;;5053763;28;20221;-50
2024/01/30 12:45:35;;;;;;;4.78;1.60;;;11.10;99.90;;;;;;5053817;28;20215;-53